Baugh, Mississippi
Current Conditions -  °F | °C
As of 5:15 PM on Sunday 21 Dec 2014 (Local Time) from KCKM Reporting Station
Clear Clear  
Wind Chill: 52°   Ceiling: Unl
Heat Index: 52°   Visibility: 10mi
Dew Point: 39°   Wind: 0mph
Humidity: 62%   Direction: NA
Pressure: 30.01"   Gusts: NA
Location:  34.2103°N, 90.7115°W
Report Text: KCKM 212315Z AUTO 00000KT 10SM CLR 11/04 A3001 RMK AO1
Loading
Personal Weather Stations






























Interactive Weather Map New forecast layout! Learn more

10-Day Weather Forecast

Advertisements
Track Severe Weather on mobile